Time;durP1;ratioP1;P1;durP2;ratioP2;P2;SDS_P1;SDS_P2;PMS_P1;PMS_P2;Temp;Humidity;BMP_temperature;BMP_pressure;BME280_temperature;BME280_humidity;BME280_pressure;Samples;Min_cycle;Max_cycle;Signal;HPM_P1;HPM_P2
2021/10/01 00:00:21;;;;;;;1.95;1.08;;;;;;;5.46;99.13;99842.59;5071466;28;20059;-81
2021/10/01 00:02:48;;;;;;;1.45;1.10;;;;;;;5.39;99.52;99837.88;5073008;28;20048;-80
2021/10/01 00:08:15;;;;;;;2.50;1.00;;;;;;;5.40;99.67;99839.59;5051511;28;20056;-80
2021/10/01 00:10:42;;;;;;;4.47;1.75;;;;;;;5.44;98.93;99839.19;5053656;28;20103;-80
2021/10/01 00:13:10;;;;;;;1.48;1.10;;;;;;;5.42;99.32;99833.09;5054357;28;20414;-80
2021/10/01 00:15:37;;;;;;;1.40;1.00;;;;;;;5.47;99.13;99830.84;5054190;28;20099;-80
2021/10/01 00:18:05;;;;;;;3.20;1.17;;;;;;;5.34;100.00;99824.81;5058255;28;20462;-80
2021/10/01 00:20:33;;;;;;;1.77;0.90;;;;;;;5.38;100.00;99822.72;5073833;28;20048;-80
2021/10/01 00:22:59;;;;;;;1.65;1.10;;;;;;;5.36;99.52;99812.06;5073954;28;20378;-81
2021/10/01 00:25:26;;;;;;;3.35;1.20;;;;;;;5.28;99.52;99798.41;5073466;28;20480;-80
2021/10/01 00:27:56;;;;;;;2.22;1.05;;;;;;;5.39;99.52;99809.09;5073358;28;20518;-80
2021/10/01 00:30:25;;;;;;;2.88;1.20;;;;;;;5.35;100.00;99806.81;5073772;28;20492;-81
2021/10/01 00:32:54;;;;;;;1.38;1.00;;;;;;;5.29;99.62;99810.91;5073803;28;20052;-80
2021/10/01 00:35:20;;;;;;;2.42;0.95;;;;;;;5.26;99.49;99795.00;5072319;28;20480;-80
2021/10/01 00:37:47;;;;;;;1.50;0.80;;;;;;;5.23;100.00;99782.63;5073538;28;20052;-80
2021/10/01 00:40:14;;;;;;;2.92;0.90;;;;;;;5.28;100.00;99783.09;5073908;28;20048;-80
2021/10/01 00:42:41;;;;;;;1.42;1.00;;;;;;;5.40;100.00;99799.16;5073346;28;20049;-80
2021/10/01 00:45:09;;;;;;;1.65;1.00;;;;;;;5.34;100.00;99783.53;5073233;28;20048;-81
2021/10/01 00:47:37;;;;;;;1.33;0.90;;;;;;;5.41;100.00;99790.94;5073336;28;20052;-80
2021/10/01 00:50:07;;;;;;;2.88;0.80;;;;;;;5.42;99.87;99792.66;5073142;28;20048;-80
2021/10/01 00:52:34;;;;;;;3.33;1.13;;;;;;;5.45;99.73;99784.28;5073281;28;20037;-80
2021/10/01 00:55:02;;;;;;;5.93;1.13;;;;;;;5.52;100.00;99778.34;5073423;28;20044;-80
2021/10/01 00:57:29;;;;;;;2.67;1.02;;;;;;;5.44;99.48;99768.25;5073138;28;20488;-80
2021/10/01 00:59:56;;;;;;;1.70;1.17;;;;;;;5.58;99.08;99769.69;5073065;28;20052;-81
2021/10/01 01:02:23;;;;;;;2.10;0.80;;;;;;;5.50;99.60;99776.63;5072693;28;20056;-80
2021/10/01 01:04:52;;;;;;;1.02;0.90;;;;;;;5.53;99.13;99774.66;5072691;28;20052;-80
2021/10/01 01:07:28;;;;;;;2.47;0.90;;;;;;;5.37;99.36;99751.72;5073227;28;20044;-80
2021/10/01 01:10:00;;;;;;;2.92;1.02;;;;;;;5.31;99.49;99746.91;5072710;28;20056;-80
2021/10/01 01:12:39;;;;;;;1.45;0.95;;;;;;;5.33;99.69;99742.25;5073196;28;20049;-81
2021/10/01 01:15:21;;;;;;;2.67;1.08;;;;;;;5.37;99.48;99748.19;5072980;28;20106;-80
2021/10/01 01:17:53;;;;;;;0.95;0.73;;;;;;;5.39;99.34;99759.69;5073462;28;20086;-81
2021/10/01 01:20:27;;;;;;;3.00;1.25;;;;;;;5.39;99.20;99744.38;5072153;28;20052;-80
2021/10/01 01:23:31;;;;;;;2.03;1.10;;;;;;;5.43;99.52;99753.88;5070166;28;20455;-80
2021/10/01 01:26:08;;;;;;;1.10;0.85;;;;;;;5.44;99.51;99741.28;5053066;28;20045;-80
2021/10/01 01:28:42;;;;;;;4.97;1.00;;;;;;;5.54;99.51;99755.66;5052840;28;20056;-80
2021/10/01 01:31:19;;;;;;;1.30;0.90;;;;;;;5.56;99.84;99759.03;5052799;28;20103;-82
2021/10/01 01:33:49;;;;;;;4.75;1.42;;;;;;;5.57;99.47;99751.78;5052683;28;20044;-80
2021/10/01 01:36:16;;;;;;;2.05;1.20;;;;;;;5.44;100.00;99733.19;5062821;28;20074;-80
2021/10/01 01:38:48;;;;;;;5.55;0.98;;;;;;;5.54;100.00;99747.56;5072944;28;20466;-80
2021/10/01 01:41:18;;;;;;;2.42;1.15;;;;;;;5.55;99.94;99749.22;5072043;28;20072;-80
2021/10/01 01:43:46;;;;;;;2.95;1.23;;;;;;;5.42;99.96;99727.94;5073138;28;20442;-80
2021/10/01 01:46:14;;;;;;;1.25;1.10;;;;;;;5.54;99.71;99742.16;5072912;28;20048;-80
2021/10/01 01:48:42;;;;;;;4.20;1.02;;;;;;;5.46;100.00;99723.94;5073006;28;20381;-80
2021/10/01 01:51:12;;;;;;;3.05;1.05;;;;;;;5.49;100.00;99730.91;5073071;28;20084;-80
2021/10/01 01:53:39;;;;;;;2.13;1.27;;;;;;;5.40;99.48;99712.88;5073248;28;20057;-80
2021/10/01 01:56:08;;;;;;;3.55;0.90;;;;;;;5.55;98.93;99726.81;5072839;28;20078;-81
2021/10/01 01:58:36;;;;;;;1.48;0.95;;;;;;;5.46;99.20;99717.72;5073081;28;20044;-80
2021/10/01 02:01:04;;;;;;;2.15;1.02;;;;;;;5.51;98.38;99718.16;5073845;28;20056;-80
2021/10/01 02:03:32;;;;;;;3.83;0.80;;;;;;;5.29;98.84;99700.34;5072691;28;20049;-80
2021/10/01 02:06:03;;;;;;;3.35;0.85;;;;;;;5.33;99.61;99715.28;5072695;28;20056;-80
2021/10/01 02:08:33;;;;;;;1.77;1.17;;;;;;;5.28;99.88;99714.81;5072932;28;20432;-80
2021/10/01 02:11:00;;;;;;;1.27;1.00;;;;;;;5.29;99.90;99711.97;5073538;28;20048;-80
2021/10/01 02:13:29;;;;;;;2.42;1.05;;;;;;;5.41;100.00;99717.28;5072924;28;20094;-80
2021/10/01 02:15:57;;;;;;;1.65;1.05;;;;;;;5.34;100.00;99687.31;5072661;28;20395;-81
2021/10/01 02:18:26;;;;;;;4.82;1.20;;;;;;;5.37;100.00;99694.28;5072181;28;20044;-80
2021/10/01 02:20:56;;;;;;;2.33;1.10;;;;;;;5.42;100.00;99698.25;5072493;28;20052;-81
2021/10/01 02:23:24;;;;;;;1.45;0.85;;;;;;;5.42;99.73;99690.19;5073392;28;20086;-80
2021/10/01 02:28:43;;;;;;;1.33;0.80;;;;;;;5.31;99.10;99682.19;5056449;28;20511;-80
2021/10/01 02:31:18;;;;;;;2.50;0.85;;;;;;;5.12;99.56;99669.53;5056437;28;20477;-80
2021/10/01 02:33:46;;;;;;;1.40;0.80;;;;;;;5.19;99.21;99677.91;5056228;28;20053;-80
2021/10/01 02:36:13;;;;;;;1.15;0.95;;;;;;;5.05;99.68;99662.97;5055410;28;20465;-80
2021/10/01 02:38:40;;;;;;;2.80;1.15;;;;;;;5.03;99.73;99664.94;5056277;28;20102;-80
2021/10/01 02:41:08;;;;;;;1.63;0.80;;;;;;;5.05;99.96;99677.28;5056232;28;20447;-80
2021/10/01 02:43:36;;;;;;;5.80;1.10;;;;;;;5.08;99.84;99668.94;5056408;28;20389;-80
2021/10/01 02:46:02;;;;;;;1.55;1.13;;;;;;;4.99;100.00;99667.06;5055901;28;20589;-80
2021/10/01 02:48:29;;;;;;;1.83;1.20;;;;;;;5.10;99.90;99675.06;5065601;28;20044;-80
2021/10/01 02:51:01;;;;;;;2.95;1.38;;;;;;;5.06;99.45;99665.53;5075743;28;20048;-81
2021/10/01 02:53:32;;;;;;;6.88;1.70;;;;;;;4.91;99.40;99654.28;5075656;28;20040;-79
2021/10/01 02:56:06;;;;;;;2.40;1.77;;;;;;;4.91;99.81;99656.97;5076262;28;20110;-80
2021/10/01 02:58:39;;;;;;;3.70;1.63;;;;;;;4.99;99.89;99656.28;5076129;28;20106;-80
2021/10/01 03:01:10;;;;;;;4.82;1.80;;;;;;;4.97;99.77;99652.91;5076324;28;20076;-81
2021/10/01 03:03:41;;;;;;;2.72;1.55;;;;;;;5.00;99.44;99654.44;5076599;28;20047;-81
2021/10/01 03:06:08;;;;;;;3.10;1.50;;;;;;;4.92;98.78;99658.69;5075574;28;20098;-81
2021/10/01 03:08:37;;;;;;;4.25;1.60;;;;;;;4.88;98.63;99654.56;5075276;28;20560;-81
2021/10/01 03:11:10;;;;;;;1.70;1.38;;;;;;;4.87;98.22;99647.47;5075492;28;20049;-81
2021/10/01 03:13:41;;;;;;;2.10;1.33;;;;;;;4.64;98.60;99641.44;5075600;28;20072;-81
2021/10/01 03:16:09;;;;;;;2.15;1.50;;;;;;;4.57;99.03;99638.41;5075371;28;20048;-81
2021/10/01 03:18:38;;;;;;;2.75;1.63;;;;;;;4.42;99.46;99648.66;5075265;28;20048;-81
2021/10/01 03:21:06;;;;;;;3.42;1.40;;;;;;;4.54;99.37;99646.75;5075278;28;20052;-81
2021/10/01 03:23:33;;;;;;;2.35;1.40;;;;;;;4.50;99.73;99652.53;5055569;28;20518;-82
2021/10/01 03:26:01;;;;;;;3.72;1.50;;;;;;;4.52;99.76;99648.72;5055023;28;20071;-81
2021/10/01 03:28:28;;;;;;;2.65;1.50;;;;;;;4.48;99.60;99643.75;5072665;28;20431;-81
2021/10/01 03:30:56;;;;;;;1.63;1.52;;;;;;;4.36;99.56;99638.44;5075199;28;20078;-81
2021/10/01 03:33:24;;;;;;;2.63;1.35;;;;;;;4.38;99.72;99641.88;5075272;28;20052;-81
2021/10/01 03:35:51;;;;;;;4.10;1.35;;;;;;;4.38;99.64;99641.88;5074627;28;20067;-81
2021/10/01 03:38:19;;;;;;;3.40;1.52;;;;;;;4.52;98.83;99658.66;5074680;28;20056;-81
2021/10/01 03:40:47;;;;;;;1.98;1.40;;;;;;;4.41;99.23;99638.03;5074840;28;20044;-81
2021/10/01 03:43:15;;;;;;;3.63;1.75;;;;;;;4.48;99.03;99649.13;5074536;28;20052;-81
2021/10/01 03:45:42;;;;;;;5.88;1.92;;;;;;;4.40;99.47;99642.56;5072785;28;20106;-81
2021/10/01 03:48:11;;;;;;;4.25;1.95;;;;;;;4.42;100.00;99643.28;5074313;28;20048;-81
2021/10/01 03:50:38;;;;;;;3.83;2.45;;;;;;;4.50;100.00;99647.16;5074579;28;20052;-80
2021/10/01 03:53:06;;;;;;;7.45;2.70;;;;;;;4.46;100.00;99649.28;5074184;28;20094;-83
2021/10/01 03:55:33;;;;;;;4.25;2.40;;;;;;;4.48;99.70;99638.38;5073280;28;20052;-82
2021/10/01 03:58:00;;;;;;;4.18;2.72;;;;;;;4.41;99.49;99622.75;5073465;28;20056;-80
2021/10/01 04:00:28;;;;;;;4.65;2.80;;;;;;;4.30;100.00;99621.97;5072933;28;20041;-80
2021/10/01 04:02:55;;;;;;;3.55;2.70;;;;;;;4.34;100.00;99639.59;5057071;28;20057;-80
2021/10/01 04:05:24;;;;;;;3.83;2.53;;;;;;;4.26;100.00;99642.94;5065703;28;20484;-82
2021/10/01 04:07:53;;;;;;;5.75;3.05;;;;;;;4.15;100.00;99630.38;5073000;28;20044;-81
2021/10/01 04:10:20;;;;;;;6.93;2.67;;;;;;;4.01;100.00;99611.91;5072989;28;20051;-81
2021/10/01 04:12:47;;;;;;;4.00;2.58;;;;;;;4.06;100.00;99628.50;5072588;28;20048;-82
2021/10/01 04:15:14;;;;;;;4.50;2.03;;;;;;;4.00;100.00;99602.97;5072450;28;20053;-81
2021/10/01 04:17:40;;;;;;;2.45;2.08;;;;;;;4.17;100.00;99614.09;5065262;28;20451;-82
2021/10/01 04:20:08;;;;;;;2.78;1.73;;;;;;;4.22;100.00;99611.88;5071838;28;20400;-82
2021/10/01 04:22:36;;;;;;;2.17;1.80;;;;;;;4.24;100.00;99602.66;5072707;28;20044;-81
2021/10/01 04:25:04;;;;;;;1.80;1.30;;;;;;;4.27;100.00;99603.41;5072272;28;20053;-81
2021/10/01 04:27:31;;;;;;;1.65;1.30;;;;;;;4.29;100.00;99612.19;5072301;28;20480;-81
2021/10/01 04:30:00;;;;;;;3.53;1.60;;;;;;;4.18;100.00;99591.59;5072524;28;20048;-81
2021/10/01 04:32:27;;;;;;;2.60;1.27;;;;;;;4.19;99.85;99618.38;5072227;28;20079;-81
2021/10/01 04:35:03;;;;;;;2.08;1.40;;;;;;;4.10;100.00;99586.88;5068621;28;20051;-81
2021/10/01 04:37:30;;;;;;;4.00;0.95;;;;;;;4.16;100.00;99620.50;5072420;28;20052;-81
2021/10/01 04:39:59;;;;;;;1.30;1.20;;;;;;;4.01;100.00;99618.13;5072215;28;20052;-81
2021/10/01 04:42:41;;;;;;;;;;;;;;;;;;;;;
2021/10/01 04:45:13;;;;;;;0.88;0.88;;;;;;;3.87;100.00;99613.94;5071977;28;20060;-82
2021/10/01 04:47:40;;;;;;;1.60;1.17;;;;;;;3.83;100.00;99604.41;5072105;28;20510;-82
2021/10/01 04:50:08;;;;;;;1.20;1.10;;;;;;;3.89;100.00;99611.13;5072396;28;20048;-82
2021/10/01 04:52:35;;;;;;;1.10;1.00;;;;;;;3.96;100.00;99617.69;5071293;28;20087;-81
2021/10/01 04:55:04;;;;;;;2.72;1.20;;;;;;;3.80;100.00;99588.53;5072432;28;20061;-81
2021/10/01 04:57:30;;;;;;;4.35;1.58;;;;;;;3.87;100.00;99595.09;5072195;28;20041;-81
2021/10/01 04:59:57;;;;;;;2.88;1.83;;;;;;;4.01;100.00;99625.34;5072410;28;20063;-81
2021/10/01 05:02:24;;;;;;;1.63;1.50;;;;;;;3.87;100.00;99603.19;5072300;28;20052;-81
2021/10/01 05:04:55;;;;;;;2.80;1.45;;;;;;;3.93;100.00;99606.31;5072004;28;20044;-80
2021/10/01 05:07:22;;;;;;;2.83;1.42;;;;;;;4.06;100.00;99617.72;5069493;28;20059;-81
2021/10/01 05:09:51;;;;;;;1.35;1.20;;;;;;;3.92;100.00;99610.00;5068540;28;20492;-81
2021/10/01 05:12:19;;;;;;;2.10;1.60;;;;;;;3.85;100.00;99621.28;5072236;28;20464;-81
2021/10/01 05:14:46;;;;;;;2.35;1.70;;;;;;;3.59;100.00;99580.47;5071652;28;20729;-81
2021/10/01 05:17:13;;;;;;;2.80;1.50;;;;;;;3.58;100.00;99599.41;5071968;28;20056;-81
2021/10/01 05:19:40;;;;;;;4.60;1.73;;;;;;;3.61;100.00;99600.00;5071983;28;20058;-82
2021/10/01 05:22:07;;;;;;;4.15;2.20;;;;;;;3.81;100.00;99613.59;5072257;28;20051;-82
2021/10/01 05:24:34;;;;;;;8.52;2.30;;;;;;;3.82;100.00;99615.31;5068739;28;20083;-82
2021/10/01 05:27:02;;;;;;;2.70;1.95;;;;;;;3.63;100.00;99591.81;5067179;28;20548;-81
2021/10/01 05:29:30;;;;;;;2.28;1.63;;;;;;;3.54;100.00;99594.31;5072064;28;20052;-81
2021/10/01 05:31:57;;;;;;;4.78;1.98;;;;;;;3.54;100.00;99593.47;5071892;28;20056;-82
2021/10/01 05:34:24;;;;;;;4.57;2.10;;;;;;;3.65;100.00;99617.59;5071509;28;20048;-81
2021/10/01 05:36:51;;;;;;;2.80;1.75;;;;;;;3.56;100.00;99596.84;5071778;28;20075;-82
2021/10/01 05:39:19;;;;;;;4.85;2.00;;;;;;;3.71;100.00;99621.59;5071629;28;20102;-82
2021/10/01 05:41:47;;;;;;;4.13;1.80;;;;;;;3.73;100.00;99611.56;5071147;28;20048;-82
2021/10/01 05:44:16;;;;;;;4.47;2.05;;;;;;;3.89;100.00;99617.34;5054733;28;20053;-82
2021/10/01 05:46:45;;;;;;;2.13;1.67;;;;;;;3.90;99.99;99613.66;5052063;28;20057;-82
2021/10/01 05:49:18;;;;;;;4.05;2.38;;;;;;;3.70;100.00;99587.63;5051508;28;20091;-82
2021/10/01 05:51:49;;;;;;;3.13;1.85;;;;;;;3.95;100.00;99615.97;5055239;28;20048;-82
2021/10/01 05:54:21;;;;;;;2.90;2.15;;;;;;;4.01;100.00;99622.66;5071284;28;20507;-82
2021/10/01 05:56:52;;;;;;;4.93;2.17;;;;;;;4.00;100.00;99620.94;5072316;28;20126;-81
2021/10/01 05:59:19;;;;;;;3.60;2.13;;;;;;;3.78;100.00;99595.03;5073690;28;20044;-82
2021/10/01 06:01:48;;;;;;;5.20;2.58;;;;;;;3.81;100.00;99592.94;5070650;28;20577;-82
2021/10/01 06:04:15;;;;;;;2.38;1.90;;;;;;;3.98;100.00;99620.25;5075061;28;20499;-82
2021/10/01 06:06:44;;;;;;;3.85;1.70;;;;;;;4.02;100.00;99608.22;5075267;28;20052;-82
2021/10/01 06:09:12;;;;;;;2.22;2.00;;;;;;;4.19;100.00;99607.63;5075087;28;20128;-82
2021/10/01 06:11:40;;;;;;;9.52;2.25;;;;;;;4.28;100.00;99607.81;5071185;28;20060;-82
2021/10/01 06:14:08;;;;;;;4.00;2.10;;;;;;;4.47;100.00;99629.44;5074897;28;20775;-80
2021/10/01 06:16:35;;;;;;;3.85;2.40;;;;;;;4.45;100.00;99603.63;5075453;28;20102;-81
2021/10/01 06:19:06;;;;;;;2.78;1.90;;;;;;;4.57;100.00;99611.47;5056520;28;20084;-81
2021/10/01 06:21:33;;;;;;;3.70;1.75;;;;;;;4.61;100.00;99601.31;5056796;28;20550;-81
2021/10/01 06:24:00;;;;;;;10.95;2.70;;;;;;;4.83;100.00;99602.06;5060555;28;20511;-82
2021/10/01 06:26:27;;;;;;;4.10;2.20;;;;;;;4.90;100.00;99609.47;5076725;28;20139;-82
2021/10/01 06:28:54;;;;;;;10.05;2.03;;;;;;;4.97;100.00;99580.97;5076201;28;20048;-82
2021/10/01 06:31:20;;;;;;;3.53;2.08;;;;;;;5.21;100.00;99589.66;5076431;28;20041;-81
2021/10/01 06:33:48;;;;;;;12.55;5.32;;;;;;;5.45;100.00;99600.91;5076566;28;20403;-81
2021/10/01 06:36:22;;;;;;;9.10;5.50;;;;;;;5.56;100.00;99589.13;5075271;28;20049;-81
2021/10/01 06:38:50;;;;;;;18.15;10.73;;;;;;;5.74;100.00;99585.72;5076058;28;20060;-81
2021/10/01 06:41:20;;;;;;;13.00;5.50;;;;;;;5.67;100.00;99569.22;5074551;28;20399;-81
2021/10/01 06:43:46;;;;;;;;;;;;;;;5.90;100.00;99590.50;5075464;28;20408;-81
2021/10/01 06:46:22;;;;;;;7.18;2.30;;;;;;;5.83;100.00;99576.75;5074815;28;20283;-81
2021/10/01 06:48:57;;;;;;;13.80;3.15;;;;;;;5.96;100.00;99568.34;5074588;28;20140;-80
2021/10/01 06:51:48;;;;;;;14.68;4.38;;;;;;;6.14;100.00;99579.25;5067290;28;20049;-81
2021/10/01 07:35:53;;;;;;;5.32;1.63;;;;;;;8.95;96.15;99570.81;5073742;28;20114;-82
2021/10/01 08:20:01;;;;;;;7.82;2.20;;;;;;;10.59;88.63;99544.69;5071148;28;20055;-82
2021/10/01 08:22:27;;;;;;;;;;;;;;;10.71;90.56;99553.31;5073177;28;20048;-82
2021/10/01 08:24:54;;;;;;;3.00;1.63;;;;;;;10.71;87.72;99537.00;5072574;28;19924;-82
2021/10/01 08:27:23;;;;;;;1.73;1.40;;;;;;;10.70;85.79;99538.84;5072945;28;20045;-82
2021/10/01 08:29:52;;;;;;;6.95;1.52;;;;;;;10.69;86.52;99544.47;5072744;28;20048;-82
2021/10/01 08:32:19;;;;;;;9.65;1.70;;;;;;;10.78;85.98;99521.69;5072805;28;20041;-82
2021/10/01 08:34:46;;;;;;;4.65;1.60;;;;;;;10.84;85.40;99520.97;5072375;28;20488;-83
2021/10/01 08:37:14;;;;;;;2.35;1.35;;;;;;;11.03;85.09;99532.41;5071458;28;20072;-83
2021/10/01 08:39:41;;;;;;;2.63;1.48;;;;;;;10.90;84.80;99530.25;5072159;28;20534;-82
2021/10/01 08:42:08;;;;;;;3.00;1.60;;;;;;;10.93;85.14;99532.63;5064862;28;20458;-82
2021/10/01 08:44:36;;;;;;;3.10;1.50;;;;;;;10.93;84.52;99530.75;5072397;28;20492;-82
2021/10/01 08:47:10;;;;;;;3.80;1.85;;;;;;;11.04;85.03;99531.41;5072663;28;20463;-82
2021/10/01 08:49:39;;;;;;;3.78;1.88;;;;;;;11.12;85.88;99525.88;5072096;28;20044;-81
2021/10/01 08:52:09;;;;;;;5.78;1.55;;;;;;;11.24;85.72;99529.88;5072478;28;20067;-82
2021/10/01 08:54:41;;;;;;;5.07;1.60;;;;;;;11.43;86.70;99522.28;5072534;28;20052;-82
2021/10/01 08:57:08;;;;;;;4.47;1.60;;;;;;;11.51;85.08;99516.78;5072119;28;20177;-82
2021/10/01 08:59:35;;;;;;;4.97;1.60;;;;;;;11.47;83.08;99499.09;5069463;28;20098;-82
2021/10/01 09:02:02;;;;;;;3.20;1.35;;;;;;;11.70;84.71;99518.16;5070665;28;20056;-82
2021/10/01 09:04:30;;;;;;;4.15;1.55;;;;;;;11.79;84.25;99508.03;5052001;28;20056;-82
2021/10/01 09:06:59;;;;;;;3.20;1.52;;;;;;;11.85;83.16;99520.91;5053019;28;20053;-82
2021/10/01 09:09:35;;;;;;;2.85;1.42;;;;;;;11.96;82.64;99495.97;5051720;28;20102;-82
2021/10/01 09:12:03;;;;;;;3.10;1.50;;;;;;;12.07;82.24;99488.38;5069150;28;20143;-83
2021/10/01 09:14:29;;;;;;;7.20;1.70;;;;;;;12.10;83.17;99490.72;5071663;28;20048;-82
2021/10/01 09:16:58;;;;;;;3.50;1.75;;;;;;;12.12;83.99;99472.28;5072121;28;20522;-82
2021/10/01 09:19:40;;;;;;;5.50;1.38;;;;;;;12.31;83.03;99469.00;5072176;28;20147;-82
2021/10/01 09:22:07;;;;;;;5.03;1.55;;;;;;;12.49;81.48;99490.44;5071890;28;20052;-82
2021/10/01 09:24:41;;;;;;;4.15;1.65;;;;;;;12.41;80.15;99479.63;5064004;28;20041;-82
2021/10/01 09:27:09;;;;;;;4.50;1.58;;;;;;;12.52;80.19;99484.59;5061969;28;20450;-82
2021/10/01 09:29:38;;;;;;;2.92;1.40;;;;;;;12.63;82.02;99480.56;5072158;28;20392;-82
2021/10/01 09:32:11;;;;;;;3.93;1.70;;;;;;;12.62;80.17;99448.84;5071633;28;20443;-82
2021/10/01 09:34:41;;;;;;;4.40;1.75;;;;;;;12.82;79.16;99461.88;5071861;28;20689;-83
2021/10/01 09:37:09;;;;;;;;;;;;;;;12.98;79.15;99461.66;5072054;28;20048;-82
2021/10/01 09:39:38;;;;;;;3.08;1.40;;;;;;;12.99;78.68;99454.28;5072103;28;19924;-82
2021/10/01 09:42:15;;;;;;;2.90;1.90;;;;;;;13.03;79.34;99445.53;5067258;28;20044;-82
2021/10/01 09:44:47;;;;;;;4.80;1.30;;;;;;;13.16;79.45;99430.31;5058718;28;20423;-83
2021/10/01 09:47:15;;;;;;;9.00;1.42;;;;;;;13.37;76.88;99434.94;5071773;28;20055;-82
2021/10/01 09:49:44;;;;;;;9.20;1.27;;;;;;;13.47;77.59;99430.00;5071518;28;20053;-82
2021/10/01 09:52:12;;;;;;;3.85;1.23;;;;;;;13.51;76.05;99408.63;5071562;28;20056;-82
2021/10/01 09:54:39;;;;;;;2.63;1.30;;;;;;;13.61;75.74;99414.59;5071614;28;20515;-83
2021/10/01 09:57:08;;;;;;;3.17;1.13;;;;;;;13.65;74.33;99399.47;5071984;28;20052;-82
2021/10/01 09:59:36;;;;;;;11.70;1.23;;;;;;;13.73;73.53;99409.41;5060129;28;20103;-83
2021/10/01 10:02:10;;;;;;;2.67;1.05;;;;;;;13.98;74.21;99405.19;5051947;28;20049;-83
2021/10/01 10:04:41;;;;;;;7.35;1.02;;;;;;;14.04;74.96;99395.28;5051495;28;20092;-83
2021/10/01 10:07:11;;;;;;;5.78;1.40;;;;;;;14.16;73.84;99396.41;5066741;28;20503;-82
2021/10/01 10:09:40;;;;;;;2.75;0.88;;;;;;;14.15;72.27;99361.94;5071475;28;20484;-82
2021/10/01 10:12:10;;;;;;;3.45;1.13;;;;;;;14.35;71.66;99391.25;5071588;28;20052;-82
2021/10/01 10:14:43;;;;;;;5.30;0.90;;;;;;;14.39;73.73;99383.47;5071363;28;20041;-83
2021/10/01 10:17:19;;;;;;;1.45;0.88;;;;;;;14.53;70.50;99377.03;5070065;28;20128;-83
2021/10/01 10:19:46;;;;;;;2.40;0.95;;;;;;;14.49;72.57;99367.53;5071625;28;20064;-83
2021/10/01 10:22:14;;;;;;;6.03;1.08;;;;;;;14.55;73.34;99361.22;5071432;28;20047;-83
2021/10/01 10:24:42;;;;;;;7.00;1.38;;;;;;;14.73;72.52;99362.59;5070232;28;20755;-83
2021/10/01 10:27:09;;;;;;;5.40;1.20;;;;;;;14.68;70.49;99355.00;5070821;28;20542;-83
2021/10/01 10:29:39;;;;;;;4.15;1.20;;;;;;;14.79;71.50;99357.09;5071620;28;20504;-83
2021/10/01 10:32:22;;;;;;;5.32;1.15;;;;;;;14.88;69.72;99356.94;5072119;28;20052;-83
2021/10/01 10:34:53;;;;;;;7.10;1.30;;;;;;;14.97;70.10;99350.19;5057621;28;20053;-83
2021/10/01 10:37:37;;;;;;;2.25;0.80;;;;;;;15.08;68.43;99355.03;5051817;28;20440;-83
2021/10/01 10:40:06;;;;;;;1.98;0.90;;;;;;;15.26;67.49;99367.25;5060817;28;20048;-83
2021/10/01 10:42:37;;;;;;;1.02;0.70;;;;;;;15.26;66.23;99359.88;5071582;28;20095;-83
2021/10/01 10:45:14;;;;;;;2.30;0.70;;;;;;;15.26;66.89;99345.34;5065665;28;20059;-83
2021/10/01 10:48:04;;;;;;;2.50;1.23;;;;;;;15.46;68.01;99351.69;5074611;28;20424;-83
2021/10/01 10:50:41;;;;;;;1.42;1.27;;;;;;;15.53;69.35;99348.91;5069314;28;20432;-83
2021/10/01 10:53:19;;;;;;;2.35;1.00;;;;;;;15.64;64.73;99334.56;5054961;28;20064;-83
2021/10/01 10:56:06;;;;;;;2.08;0.90;;;;;;;15.77;64.69;99333.69;5073257;28;20131;-83
2021/10/01 10:58:49;;;;;;;2.13;0.60;;;;;;;15.85;64.76;99321.69;5058317;28;20411;-83
2021/10/01 11:01:40;;;;;;;1.17;0.82;;;;;;;16.08;66.29;99341.22;5074659;28;20044;-83
2021/10/01 11:04:27;;;;;;;3.28;0.95;;;;;;;16.15;64.55;99348.56;5074956;28;20053;-83
2021/10/01 11:06:55;;;;;;;5.95;0.93;;;;;;;16.22;64.10;99333.78;5073881;28;20400;-83
2021/10/01 11:09:30;;;;;;;1.52;0.90;;;;;;;16.28;64.54;99323.84;5074125;28;20048;-83
2021/10/01 11:11:59;;;;;;;2.90;1.15;;;;;;;16.31;63.48;99326.16;5073779;28;20496;-84
2021/10/01 11:14:28;;;;;;;2.88;0.80;;;;;;;16.50;65.33;99329.84;5054359;28;20051;-84
2021/10/01 11:17:20;;;;;;;2.78;0.95;;;;;;;16.60;63.02;99326.63;5055048;28;20060;-83
2021/10/01 11:19:52;;;;;;;5.95;1.00;;;;;;;16.72;58.04;99319.34;5054289;28;20087;-83
2021/10/01 11:22:28;;;;;;;5.07;1.77;;;;;;;16.78;60.71;99312.97;5054636;28;20114;-83
2021/10/01 11:25:00;;;;;;;3.53;0.90;;;;;;;16.84;57.03;99308.50;5053957;28;20067;-83
2021/10/01 11:27:27;;;;;;;4.15;1.00;;;;;;;16.85;58.13;99288.25;5054228;28;20053;-83
2021/10/01 11:29:59;;;;;;;2.22;0.98;;;;;;;17.03;59.55;99300.41;5062592;28;20053;-84
2021/10/01 11:32:28;;;;;;;3.67;0.90;;;;;;;17.02;58.99;99287.72;5073792;28;20075;-83
2021/10/01 11:34:57;;;;;;;1.50;0.63;;;;;;;17.13;56.46;99303.44;5073065;28;20044;-84
2021/10/01 11:37:27;;;;;;;3.15;0.82;;;;;;;17.09;57.58;99275.59;5068242;28;20303;-83
2021/10/01 11:39:57;;;;;;;2.05;0.80;;;;;;;17.32;55.19;99288.69;5073122;28;20404;-84
2021/10/01 11:42:27;;;;;;;3.75;0.90;;;;;;;17.40;54.02;99278.50;5073840;28;20438;-83
2021/10/01 11:44:56;;;;;;;4.88;1.33;;;;;;;17.47;53.96;99271.84;5073529;28;20110;-83
2021/10/01 11:47:31;;;;;;;1.50;0.80;;;;;;;17.65;55.87;99260.03;5074080;28;20406;-83
2021/10/01 11:50:01;;;;;;;1.33;0.80;;;;;;;17.83;54.18;99261.09;5069841;28;20049;-84
2021/10/01 11:52:31;;;;;;;1.70;0.85;;;;;;;18.01;53.03;99261.13;5064203;28;20041;-85
2021/10/01 11:55:00;;;;;;;2.47;1.02;;;;;;;18.17;51.80;99261.53;5073208;28;20097;-84
2021/10/01 11:57:43;;;;;;;5.93;0.95;;;;;;;18.26;50.22;99251.06;5073457;28;20159;-85
2021/10/01 12:00:13;;;;;;;1.00;0.50;;;;;;;18.31;49.40;99252.03;5064272;28;20049;-85
2021/10/01 12:14:20;;;;;;;2.35;0.90;;;;;;;18.75;48.29;99208.56;5107071;22;20073;-85
2021/10/01 12:16:56;;;;;;;1.38;0.60;;;;;;;18.81;46.56;99223.31;4993932;28;20050;-84
2021/10/01 12:19:25;;;;;;;4.85;0.70;;;;;;;18.67;45.01;99203.44;4991971;28;20065;-85
2021/10/01 12:22:02;;;;;;;1.92;0.85;;;;;;;18.87;44.55;99216.06;4993770;28;20046;-84
2021/10/01 12:24:40;;;;;;;0.82;0.60;;;;;;;18.87;46.90;99194.84;4992651;28;20054;-85
2021/10/01 12:27:07;;;;;;;3.80;1.02;;;;;;;18.98;46.52;99198.69;4990816;28;20061;-85
2021/10/01 12:29:43;;;;;;;5.45;0.95;;;;;;;18.98;45.31;99201.44;4993179;28;20069;-85
2021/10/01 12:32:16;;;;;;;1.23;0.55;;;;;;;19.17;46.78;99207.69;4987162;28;20050;-85
2021/10/01 12:34:51;;;;;;;1.75;0.82;;;;;;;19.15;45.32;99182.28;4977772;28;20112;-85
2021/10/01 12:37:21;;;;;;;1.85;0.88;;;;;;;19.27;44.86;99196.88;4992444;28;20062;-85
2021/10/01 12:39:53;;;;;;;3.15;0.75;;;;;;;19.36;43.43;99189.09;4993219;28;20054;-85
2021/10/01 12:42:24;;;;;;;1.10;0.80;;;;;;;19.35;46.06;99194.84;4993728;28;20046;-85
2021/10/01 12:45:00;;;;;;;2.38;0.75;;;;;;;19.26;45.20;99191.63;4993147;28;20097;-85
2021/10/01 12:47:28;;;;;;;3.22;0.80;;;;;;;19.25;44.98;99184.41;4993485;28;20057;-85
2021/10/01 12:50:08;;;;;;;1.35;0.80;;;;;;;19.30;44.55;99172.66;4993156;28;20478;-85
2021/10/01 12:52:37;;;;;;;3.25;0.68;;;;;;;19.18;47.12;99164.41;4993349;28;20482;-85
2021/10/01 12:55:13;;;;;;;2.20;0.80;;;;;;;19.44;47.21;99174.09;4993138;28;20053;-85
2021/10/01 12:57:41;;;;;;;5.05;1.67;;;;;;;19.60;44.51;99166.97;4993351;28;20058;-85
2021/10/01 13:00:16;;;;;;;1.85;0.90;;;;;;;19.64;46.11;99174.50;4993688;28;20089;-85
2021/10/01 13:02:45;;;;;;;1.95;0.90;;;;;;;19.68;45.98;99163.84;4993078;28;20424;-84
2021/10/01 13:05:18;;;;;;;1.98;0.90;;;;;;;19.64;45.66;99163.47;4993444;28;20070;-85
2021/10/01 13:07:46;;;;;;;2.78;0.85;;;;;;;19.61;45.99;99149.34;4996536;28;20053;-85
2021/10/01 13:10:23;;;;;;;2.05;0.82;;;;;;;19.82;46.09;99163.59;4992734;28;20602;-85
2021/10/01 13:12:54;;;;;;;3.22;0.88;;;;;;;19.53;43.22;99139.56;4993811;28;20487;-85
2021/10/01 13:15:28;;;;;;;7.60;0.85;;;;;;;19.59;43.72;99133.06;4992403;28;20073;-84
2021/10/01 13:18:18;;;;;;;3.08;0.82;;;;;;;19.88;46.03;99143.31;4992631;28;20113;-85
2021/10/01 13:20:49;;;;;;;4.03;0.77;;;;;;;19.92;44.89;99127.94;4992543;28;20137;-86
2021/10/01 13:23:27;;;;;;;9.02;0.98;;;;;;;20.02;45.00;99130.03;4993335;28;20054;-85
2021/10/01 13:25:58;;;;;;;5.05;0.73;;;;;;;19.93;44.79;99119.41;4993118;28;20049;-85
2021/10/01 13:28:30;;;;;;;3.75;1.00;;;;;;;20.03;46.60;99137.22;4992832;28;20054;-85
2021/10/01 13:30:59;;;;;;;3.72;0.60;;;;;;;19.84;44.64;99114.53;4991904;28;20074;-85